Time;durP1;ratioP1;P1;durP2;ratioP2;P2;SDS_P1;SDS_P2;PMS_P1;PMS_P2;Temp;Humidity;BMP_temperature;BMP_pressure;BME280_temperature;BME280_humidity;BME280_pressure;Samples;Min_cycle;Max_cycle;Signal;HPM_P1;HPM_P2
2023/04/06 00:02:13;;;;;;;13.17;9.20;;;1.70;99.90;;;;;;5032784;28;20465;-72
2023/04/06 00:04:40;;;;;;;11.23;9.23;;;1.70;99.90;;;;;;5016119;28;20462;-72
2023/04/06 00:07:07;;;;;;;14.23;8.87;;;1.70;99.90;;;;;;5032553;28;20508;-72
2023/04/06 00:09:34;;;;;;;13.10;8.93;;;1.70;99.90;;;;;;5032622;28;20454;-72
2023/04/06 00:12:01;;;;;;;15.60;9.03;;;1.70;99.90;;;;;;5032737;28;20454;-72
2023/04/06 00:14:27;;;;;;;12.97;8.50;;;1.70;99.90;;;;;;5032067;28;20458;-72
2023/04/06 00:16:56;;;;;;;12.90;8.57;;;1.70;99.90;;;;;;5021225;28;20533;-72
2023/04/06 00:19:22;;;;;;;12.93;8.87;;;1.80;99.90;;;;;;5018612;28;20450;-72
2023/04/06 00:21:49;;;;;;;13.90;8.50;;;1.60;99.90;;;;;;5023238;28;20455;-72
2023/04/06 00:24:16;;;;;;;15.33;9.37;;;1.60;99.90;;;;;;5019737;28;20525;-72
2023/04/06 00:26:42;;;;;;;16.27;9.20;;;1.50;99.90;;;;;;5016487;28;20975;-72
2023/04/06 00:29:09;;;;;;;23.80;8.67;;;1.50;99.90;;;;;;5021364;28;20470;-72
2023/04/06 00:31:36;;;;;;;14.00;9.27;;;1.60;99.90;;;;;;5012601;28;20529;-72
2023/04/06 00:34:04;;;;;;;15.83;9.43;;;1.40;99.90;;;;;;5028598;28;20450;-72
2023/04/06 00:36:31;;;;;;;15.97;10.03;;;1.30;99.90;;;;;;5031728;28;20474;-72
2023/04/06 00:38:57;;;;;;;18.67;9.73;;;1.30;99.90;;;;;;5032303;28;20515;-72
2023/04/06 00:41:24;;;;;;;19.90;8.83;;;1.50;99.90;;;;;;5027900;28;20445;-72
2023/04/06 00:43:51;;;;;;;14.73;9.27;;;1.40;99.90;;;;;;5024543;28;20501;-72
2023/04/06 00:46:18;;;;;;;15.20;9.67;;;1.30;99.90;;;;;;5031988;28;20470;-72
2023/04/06 00:48:44;;;;;;;19.87;10.37;;;1.20;99.90;;;;;;5031831;28;20454;-72
2023/04/06 00:51:12;;;;;;;18.90;10.07;;;1.20;99.90;;;;;;5024769;28;20482;-72
2023/04/06 00:53:39;;;;;;;18.00;10.03;;;1.30;99.90;;;;;;5021798;28;20581;-72
2023/04/06 00:56:09;;;;;;;18.63;9.50;;;1.20;99.90;;;;;;5021044;28;20484;-72
2023/04/06 00:58:37;;;;;;;15.63;9.80;;;1.10;99.90;;;;;;5017537;28;20525;-72
2023/04/06 01:01:04;;;;;;;19.03;11.33;;;1.10;99.90;;;;;;5027739;28;20552;-71
2023/04/06 01:03:31;;;;;;;15.70;9.57;;;1.10;99.90;;;;;;5013761;28;20522;-72
2023/04/06 01:05:58;;;;;;;17.73;9.63;;;1.10;99.90;;;;;;5016548;28;20480;-72
2023/04/06 01:08:26;;;;;;;14.13;9.33;;;1.20;99.90;;;;;;5031710;28;20543;-72
2023/04/06 01:10:53;;;;;;;21.07;11.90;;;1.00;99.90;;;;;;5031807;28;20454;-72
2023/04/06 01:13:20;;;;;;;18.47;9.93;;;1.00;99.90;;;;;;5031727;28;20460;-72
2023/04/06 01:15:47;;;;;;;17.40;9.80;;;1.00;99.90;;;;;;5027429;28;20860;-72
2023/04/06 01:18:14;;;;;;;16.40;9.20;;;1.10;99.90;;;;;;5031578;28;20450;-72
2023/04/06 01:20:41;;;;;;;15.10;10.77;;;1.00;99.90;;;;;;5019970;28;20941;-72
2023/04/06 01:23:09;;;;;;;13.87;9.00;;;1.00;99.90;;;;;;5023834;28;20994;-72
2023/04/06 01:25:36;;;;;;;16.67;10.00;;;1.10;99.90;;;;;;5018500;28;21013;-72
2023/04/06 01:28:03;;;;;;;16.90;9.70;;;1.00;99.90;;;;;;5017603;28;20465;-72
2023/04/06 01:30:30;;;;;;;15.33;9.67;;;0.90;99.90;;;;;;5014456;28;20476;-72
2023/04/06 01:32:56;;;;;;;15.53;9.30;;;0.90;99.90;;;;;;5024031;28;20450;-72
2023/04/06 01:35:23;;;;;;;20.87;9.80;;;0.90;99.90;;;;;;5030957;28;20470;-72
2023/04/06 01:37:50;;;;;;;19.43;10.33;;;0.80;99.90;;;;;;5027079;28;20486;-72
2023/04/06 01:40:18;;;;;;;18.00;9.60;;;0.80;99.90;;;;;;5016674;28;20466;-72
2023/04/06 01:42:45;;;;;;;14.57;10.20;;;0.80;99.90;;;;;;5028166;28;20450;-72
2023/04/06 01:45:11;;;;;;;12.63;8.87;;;0.80;99.90;;;;;;5013751;28;20484;-72
2023/04/06 01:47:38;;;;;;;14.30;10.00;;;0.80;99.90;;;;;;5014282;28;20462;-72
2023/04/06 01:50:07;;;;;;;14.57;10.20;;;0.70;99.90;;;;;;5026542;28;20467;-72
2023/04/06 01:52:33;;;;;;;14.27;9.20;;;0.70;99.90;;;;;;5025557;28;20967;-72
2023/04/06 01:55:00;;;;;;;14.23;8.70;;;0.70;99.90;;;;;;5024878;28;20478;-72
2023/04/06 01:57:28;;;;;;;13.67;9.40;;;0.70;99.90;;;;;;5027817;28;20462;-72
2023/04/06 01:59:55;;;;;;;11.47;8.60;;;0.70;99.90;;;;;;5030658;28;20455;-72
2023/04/06 02:02:21;;;;;;;12.30;9.47;;;0.70;99.90;;;;;;5030588;28;20460;-72
2023/04/06 02:04:48;;;;;;;15.13;9.33;;;0.70;99.90;;;;;;5030226;28;20490;-72
2023/04/06 02:07:15;;;;;;;16.70;10.00;;;0.70;99.90;;;;;;5026308;28;20461;-72
2023/04/06 02:09:41;;;;;;;13.20;8.33;;;0.60;99.90;;;;;;5030612;28;20457;-72
2023/04/06 02:12:08;;;;;;;14.27;9.27;;;0.60;99.90;;;;;;5030427;28;20453;-72
2023/04/06 02:14:36;;;;;;;14.03;9.37;;;0.50;99.90;;;;;;5030026;28;20450;-72
2023/04/06 02:17:02;;;;;;;14.00;8.80;;;0.60;99.90;;;;;;5016917;28;20482;-72
2023/04/06 02:19:29;;;;;;;13.20;9.00;;;0.50;99.90;;;;;;5010903;28;20484;-72
2023/04/06 02:21:56;;;;;;;13.90;9.10;;;0.40;99.90;;;;;;5017908;28;20464;-72
2023/04/06 02:24:23;;;;;;;11.47;8.53;;;0.50;99.90;;;;;;5029821;28;20903;-72
2023/04/06 02:26:49;;;;;;;18.37;9.70;;;0.40;99.90;;;;;;5030235;28;20472;-72
2023/04/06 02:29:16;;;;;;;14.97;8.80;;;0.40;99.90;;;;;;5030248;28;20461;-72
2023/04/06 02:31:44;;;;;;;14.03;8.47;;;0.40;99.90;;;;;;5030434;28;20500;-72
2023/04/06 02:34:17;;;;;;;17.00;8.93;;;0.50;99.90;;;;;;5017093;28;20454;-72
2023/04/06 02:36:43;;;;;;;15.57;9.43;;;0.40;99.90;;;;;;5017959;28;20564;-72
2023/04/06 02:39:10;;;;;;;15.20;8.93;;;0.30;99.90;;;;;;5030340;28;20514;-72
2023/04/06 02:41:37;;;;;;;17.73;9.03;;;0.30;99.90;;;;;;5016491;28;20535;-72
2023/04/06 02:44:04;;;;;;;15.00;9.80;;;0.30;99.90;;;;;;5010497;28;20548;-72
2023/04/06 02:46:31;;;;;;;17.30;9.50;;;0.20;99.90;;;;;;5027577;28;21244;-72
2023/04/06 02:49:00;;;;;;;14.63;9.00;;;0.20;99.90;;;;;;5030137;28;20959;-72
2023/04/06 02:51:26;;;;;;;16.00;9.50;;;0.20;99.90;;;;;;5024312;28;20463;-72
2023/04/06 02:53:53;;;;;;;11.30;8.73;;;0.20;99.90;;;;;;5033429;28;20952;-72
2023/04/06 02:56:21;;;;;;;12.87;9.00;;;0.10;99.90;;;;;;5034039;28;21061;-72
2023/04/06 02:58:48;;;;;;;16.47;9.40;;;0.10;99.90;;;;;;5034017;28;20458;-72
2023/04/06 03:01:15;;;;;;;10.97;8.33;;;0.10;99.90;;;;;;5033810;28;20454;-72
2023/04/06 03:03:41;;;;;;;14.83;8.83;;;0.10;99.90;;;;;;5033380;28;20531;-72
2023/04/06 03:06:09;;;;;;;12.70;8.60;;;0.00;99.90;;;;;;5019543;28;20476;-72
2023/04/06 03:08:36;;;;;;;16.10;9.20;;;0.00;99.90;;;;;;5014359;28;20487;-72
2023/04/06 03:11:03;;;;;;;14.93;9.07;;;0.00;99.90;;;;;;5014377;28;20451;-72
2023/04/06 03:13:30;;;;;;;15.47;9.33;;;0.00;99.90;;;;;;5019076;28;20456;-72
2023/04/06 03:15:56;;;;;;;14.20;9.23;;;-0.10;99.90;;;;;;5033978;28;20466;-72
2023/04/06 03:18:24;;;;;;;17.97;9.40;;;-0.10;99.90;;;;;;5033327;28;20487;-72
2023/04/06 03:20:53;;;;;;;13.23;9.10;;;-0.10;99.90;;;;;;5016170;28;20550;-72
2023/04/06 03:23:21;;;;;;;15.87;9.63;;;-0.10;99.90;;;;;;5033755;28;20464;-72
2023/04/06 03:25:48;;;;;;;17.30;10.03;;;-0.10;99.90;;;;;;5033230;28;20477;-71
2023/04/06 03:28:15;;;;;;;13.40;8.43;;;-0.10;99.90;;;;;;5033712;28;20452;-71
2023/04/06 03:30:42;;;;;;;14.20;9.30;;;-0.10;99.90;;;;;;5033211;28;20954;-72
2023/04/06 03:33:09;;;;;;;19.27;9.27;;;-0.20;99.90;;;;;;5024058;28;20938;-72
2023/04/06 03:35:36;;;;;;;20.93;9.30;;;-0.10;99.90;;;;;;5029601;28;20474;-72
2023/04/06 03:38:03;;;;;;;13.37;8.60;;;-0.20;99.90;;;;;;5033381;28;21013;-72
2023/04/06 03:40:31;;;;;;;15.70;9.07;;;-0.30;99.90;;;;;;5028427;28;21019;-72
2023/04/06 03:42:57;;;;;;;15.40;8.83;;;-0.30;99.90;;;;;;5024101;28;20940;-72
2023/04/06 03:45:24;;;;;;;12.37;8.53;;;-0.30;99.90;;;;;;5032880;28;21189;-72
2023/04/06 03:47:51;;;;;;;16.33;9.37;;;-0.30;99.90;;;;;;5033107;28;20486;-72
2023/04/06 03:50:18;;;;;;;11.10;8.13;;;-0.30;99.90;;;;;;5027852;28;20459;-72
2023/04/06 03:52:44;;;;;;;14.30;9.13;;;-0.30;99.90;;;;;;5013148;28;20459;-72
2023/04/06 03:55:11;;;;;;;19.13;9.40;;;-0.30;99.90;;;;;;5020543;28;20467;-72
2023/04/06 03:57:39;;;;;;;13.00;9.10;;;-0.30;99.90;;;;;;5022783;28;20459;-72
2023/04/06 04:00:07;;;;;;;11.67;7.87;;;-0.30;99.90;;;;;;5019371;28;20457;-72
2023/04/06 04:02:34;;;;;;;11.60;8.37;;;-0.30;99.90;;;;;;5012386;28;20464;-72
2023/04/06 04:05:01;;;;;;;18.00;9.27;;;-0.40;99.90;;;;;;5013234;28;20491;-72
2023/04/06 04:07:27;;;;;;;14.20;9.10;;;-0.40;99.90;;;;;;5013200;28;20453;-72
2023/04/06 04:09:54;;;;;;;9.97;8.17;;;-0.50;99.90;;;;;;5015041;28;20452;-72
2023/04/06 04:12:21;;;;;;;12.80;8.80;;;-0.50;99.90;;;;;;5032589;28;20461;-72
2023/04/06 04:14:49;;;;;;;16.83;9.30;;;-0.50;99.90;;;;;;5021361;28;20448;-72
2023/04/06 04:17:15;;;;;;;14.13;9.10;;;-0.50;99.90;;;;;;5013119;28;20453;-72
2023/04/06 04:19:42;;;;;;;13.67;9.30;;;-0.60;99.90;;;;;;5012623;28;20449;-72
2023/04/06 04:22:09;;;;;;;15.13;9.37;;;-0.50;99.90;;;;;;5014500;28;20519;-72
2023/04/06 04:24:35;;;;;;;15.63;9.03;;;-0.60;99.90;;;;;;5012368;28;20487;-72
2023/04/06 04:27:02;;;;;;;16.10;9.70;;;-0.60;99.90;;;;;;5021032;28;20475;-72
2023/04/06 04:29:29;;;;;;;15.80;9.23;;;-0.50;99.90;;;;;;5032245;28;20461;-71
2023/04/06 04:31:57;;;;;;;11.60;8.80;;;-0.60;99.90;;;;;;5019851;28;20453;-72
2023/04/06 04:34:25;;;;;;;21.87;10.67;;;-0.60;99.90;;;;;;5032015;28;20543;-72
2023/04/06 04:36:51;;;;;;;14.33;9.60;;;-0.60;99.90;;;;;;5032425;28;20478;-71
2023/04/06 04:39:18;;;;;;;14.53;10.20;;;-0.50;99.90;;;;;;5032097;28;20448;-71
2023/04/06 04:41:45;;;;;;;11.70;8.57;;;-0.60;99.90;;;;;;5017462;28;20464;-71
2023/04/06 04:44:11;;;;;;;15.70;9.50;;;-0.50;99.90;;;;;;5012423;28;20582;-72
2023/04/06 04:46:38;;;;;;;12.10;8.30;;;-0.60;99.90;;;;;;5012417;28;20472;-72
2023/04/06 04:49:06;;;;;;;13.10;8.37;;;-0.60;99.90;;;;;;5013411;28;20448;-71
2023/04/06 04:51:33;;;;;;;11.97;8.60;;;-0.60;99.90;;;;;;5029772;28;20452;-71
2023/04/06 04:54:00;;;;;;;12.30;8.67;;;-0.60;99.90;;;;;;5030874;28;20459;-71
2023/04/06 04:56:27;;;;;;;14.80;8.80;;;-0.70;99.90;;;;;;5031860;28;20477;-71
2023/04/06 04:58:54;;;;;;;19.90;9.70;;;-0.70;99.90;;;;;;5027474;28;20950;-71
2023/04/06 05:01:20;;;;;;;15.27;9.57;;;-0.70;99.90;;;;;;5019099;28;20470;-71
2023/04/06 05:03:47;;;;;;;15.53;9.47;;;-0.70;99.90;;;;;;5012009;28;20461;-71
2023/04/06 05:06:15;;;;;;;11.60;8.43;;;-0.70;99.90;;;;;;5019902;28;20578;-71
2023/04/06 05:08:42;;;;;;;18.50;8.33;;;-0.50;99.90;;;;;;5031673;28;20439;-71
2023/04/06 05:11:09;;;;;;;18.90;9.17;;;-0.70;99.90;;;;;;5031781;28;20504;-71
2023/04/06 05:13:36;;;;;;;15.50;9.10;;;-0.60;99.90;;;;;;5014968;28;21001;-71
2023/04/06 05:16:03;;;;;;;19.90;9.43;;;-0.60;99.90;;;;;;5031456;28;20519;-72
2023/04/06 05:18:29;;;;;;;23.08;10.32;;;-0.60;99.90;;;;;;5030856;28;20910;-73
2023/04/06 05:20:56;;;;;;;22.00;10.63;;;-0.50;99.90;;;;;;5031703;28;20224;-74
2023/04/06 05:23:24;;;;;;;19.67;9.77;;;-0.40;99.90;;;;;;5031418;28;20956;-75
2023/04/06 05:25:51;;;;;;;18.33;10.03;;;-0.20;99.90;;;;;;5025186;28;20519;-76
2023/04/06 05:28:19;;;;;;;15.20;9.43;;;-0.30;99.90;;;;;;5022321;28;20470;-75
2023/04/06 05:30:46;;;;;;;14.53;8.90;;;-0.20;99.90;;;;;;5031016;28;20455;-76
2023/04/06 05:33:13;;;;;;;19.83;8.83;;;-0.10;99.90;;;;;;5023452;28;20870;-76
2023/04/06 05:35:39;;;;;;;13.70;8.30;;;0.10;99.90;;;;;;5029157;28;20471;-76
2023/04/06 05:38:09;;;;;;;12.90;9.07;;;0.30;99.90;;;;;;5031173;28;20457;-76
2023/04/06 05:40:37;;;;;;;15.60;9.33;;;0.70;99.90;;;;;;5025679;28;20466;-75
2023/04/06 05:43:04;;;;;;;17.43;8.40;;;0.90;99.90;;;;;;5022601;28;20548;-75
2023/04/06 05:45:31;;;;;;;16.37;8.87;;;1.10;99.90;;;;;;5030504;28;20498;-76
2023/04/06 05:47:57;;;;;;;13.10;8.43;;;1.40;99.90;;;;;;5030402;28;20457;-76
2023/04/06 05:50:24;;;;;;;12.60;8.47;;;1.70;99.90;;;;;;5020833;28;20524;-76
2023/04/06 05:52:51;;;;;;;15.50;7.83;;;1.90;99.90;;;;;;5011281;28;20486;-76
2023/04/06 05:55:18;;;;;;;13.33;8.13;;;2.20;99.90;;;;;;5030528;28;20466;-76
2023/04/06 05:57:46;;;;;;;13.80;7.83;;;2.40;99.90;;;;;;5030574;28;20468;-77
2023/04/06 06:00:14;;;;;;;12.70;9.00;;;2.50;99.90;;;;;;5029923;28;20454;-76
2023/04/06 06:02:42;;;;;;;13.73;8.63;;;2.80;99.90;;;;;;5024781;28;20969;-76
2023/04/06 06:05:09;;;;;;;12.40;8.60;;;3.10;99.90;;;;;;5010590;28;21030;-76
2023/04/06 06:07:36;;;;;;;14.10;8.70;;;3.30;99.90;;;;;;5010934;28;20450;-76
2023/04/06 06:10:03;;;;;;;13.50;8.50;;;3.50;99.90;;;;;;5025274;28;20496;-76
2023/04/06 06:12:29;;;;;;;14.33;8.93;;;3.70;99.90;;;;;;5030416;28;20450;-76
2023/04/06 06:14:58;;;;;;;14.10;8.40;;;4.00;99.90;;;;;;5029498;28;20446;-76
2023/04/06 06:17:25;;;;;;;14.70;8.53;;;4.00;99.90;;;;;;5026719;28;20447;-75
2023/04/06 06:19:51;;;;;;;11.97;8.43;;;4.00;99.90;;;;;;5021810;28;20451;-75
2023/04/06 06:22:18;;;;;;;21.47;10.10;;;4.30;99.90;;;;;;5026066;28;20462;-75
2023/04/06 06:24:45;;;;;;;17.33;8.80;;;4.00;99.90;;;;;;5016762;28;20494;-71
2023/04/06 06:27:12;;;;;;;14.03;8.07;;;4.00;99.90;;;;;;5017764;28;20451;-76
2023/04/06 06:29:38;;;;;;;16.27;8.30;;;4.30;99.90;;;;;;5019613;28;20459;-76
2023/04/06 06:32:08;;;;;;;16.67;8.00;;;4.70;99.90;;;;;;5022766;28;20946;-76
2023/04/06 06:34:35;;;;;;;11.70;8.30;;;4.90;99.90;;;;;;5017396;28;20517;-76
2023/04/06 06:37:02;;;;;;;12.70;8.63;;;4.90;99.90;;;;;;5023457;28;20475;-76
2023/04/06 06:39:29;;;;;;;21.03;8.50;;;4.70;99.90;;;;;;5026913;28;20513;-76
2023/04/06 06:41:56;;;;;;;15.70;9.10;;;4.80;99.90;;;;;;5026039;28;20459;-76
2023/04/06 06:44:23;;;;;;;11.90;9.00;;;5.20;99.90;;;;;;5028729;28;22041;-76
2023/04/06 06:46:49;;;;;;;15.10;9.50;;;4.90;99.90;;;;;;5025829;28;20467;-76
2023/04/06 06:49:18;;;;;;;16.30;9.23;;;4.40;99.90;;;;;;5014108;28;20454;-76
2023/04/06 06:51:45;;;;;;;13.60;8.60;;;4.40;99.90;;;;;;5026136;28;20455;-76
2023/04/06 06:54:12;;;;;;;14.27;9.13;;;4.90;99.90;;;;;;5029277;28;20536;-75
2023/04/06 06:56:39;;;;;;;15.23;10.00;;;5.10;99.90;;;;;;5019045;28;20474;-75
2023/04/06 06:59:06;;;;;;;16.53;9.23;;;5.00;99.90;;;;;;5010420;28;20518;-75
2023/04/06 07:01:34;;;;;;;15.77;9.30;;;5.10;99.90;;;;;;5017899;28;20542;-76
2023/04/06 07:04:00;;;;;;;15.13;10.30;;;5.30;99.90;;;;;;5025491;28;20466;-76
2023/04/06 07:06:28;;;;;;;16.53;10.27;;;5.30;99.90;;;;;;5014143;28;20496;-76
2023/04/06 07:08:56;;;;;;;16.53;9.53;;;5.10;99.90;;;;;;5021034;28;20834;-73
2023/04/06 07:11:23;;;;;;;19.57;10.07;;;5.10;99.90;;;;;;5024639;28;20458;-73
2023/04/06 07:13:49;;;;;;;14.57;10.43;;;5.20;99.90;;;;;;5029693;28;20443;-77
2023/04/06 07:16:16;;;;;;;20.57;10.37;;;5.20;99.90;;;;;;5029165;28;21001;-77
2023/04/06 07:18:43;;;;;;;19.10;9.97;;;5.00;99.90;;;;;;5021547;28;20454;-78
2023/04/06 07:21:10;;;;;;;14.97;11.10;;;5.10;99.90;;;;;;5030108;28;20450;-77
2023/04/06 07:23:38;;;;;;;16.43;11.23;;;5.30;99.90;;;;;;5027729;28;20642;-76
2023/04/06 07:26:04;;;;;;;25.10;10.50;;;5.40;99.90;;;;;;5023228;28;20606;-76
2023/04/06 07:28:31;;;;;;;17.33;11.10;;;5.60;99.90;;;;;;5029500;28;20877;-76
2023/04/06 07:30:58;;;;;;;17.57;10.80;;;5.70;99.90;;;;;;5022797;28;20539;-76
2023/04/06 07:33:24;;;;;;;15.47;11.10;;;5.80;99.90;;;;;;5029147;28;20451;-76
2023/04/06 07:35:52;;;;;;;16.40;10.97;;;5.90;99.90;;;;;;5017403;28;20477;-77
2023/04/06 07:38:18;;;;;;;16.13;10.52;;;5.90;99.90;;;;;;5011298;28;20474;-75
2023/04/06 07:40:46;;;;;;;15.63;11.07;;;5.90;99.90;;;;;;5020151;28;20221;-71
2023/04/06 07:43:13;;;;;;;16.23;11.10;;;5.80;99.90;;;;;;5033191;28;20986;-76
2023/04/06 07:45:40;;;;;;;17.03;11.67;;;5.70;99.90;;;;;;5030331;28;20557;-78
2023/04/06 07:48:07;;;;;;;17.90;11.80;;;5.80;99.90;;;;;;5032604;28;20488;-76
2023/04/06 07:50:33;;;;;;;19.33;11.90;;;5.60;99.90;;;;;;5025365;28;20480;-77
2023/04/06 07:53:00;;;;;;;13.93;10.70;;;5.70;99.90;;;;;;5016904;28;20521;-78
2023/04/06 07:55:27;;;;;;;16.47;11.50;;;6.10;99.90;;;;;;5012781;28;20504;-77
2023/04/06 07:57:55;;;;;;;19.20;11.17;;;6.20;99.90;;;;;;5018427;28;20505;-77
2023/04/06 08:00:22;;;;;;;16.47;11.37;;;6.40;99.90;;;;;;5033340;28;20516;-76
2023/04/06 08:02:49;;;;;;;19.07;12.23;;;6.40;99.90;;;;;;5021015;28;20462;-76
2023/04/06 08:05:17;;;;;;;19.30;11.63;;;6.40;99.90;;;;;;5027906;28;20988;-76
2023/04/06 08:07:44;;;;;;;16.73;11.60;;;6.60;99.90;;;;;;5022369;28;20569;-76
2023/04/06 08:10:11;;;;;;;17.03;11.10;;;6.80;99.90;;;;;;5013122;28;20464;-78
2023/04/06 08:12:38;;;;;;;20.03;13.40;;;6.90;99.90;;;;;;5013108;28;20509;-78
2023/04/06 08:15:07;;;;;;;26.60;13.10;;;6.80;99.90;;;;;;5026113;28;20478;-77
2023/04/06 08:17:33;;;;;;;21.33;12.73;;;6.90;99.90;;;;;;5030735;28;20465;-79
2023/04/06 08:20:00;;;;;;;23.43;13.60;;;6.70;99.90;;;;;;5027708;28;20465;-77
2023/04/06 08:22:27;;;;;;;22.60;13.10;;;6.80;99.90;;;;;;5016402;28;20503;-76
2023/04/06 08:24:54;;;;;;;19.53;13.03;;;7.00;99.90;;;;;;5030345;28;20447;-78
2023/04/06 08:27:20;;;;;;;25.93;13.80;;;7.20;99.90;;;;;;5031870;28;20516;-77
2023/04/06 08:29:48;;;;;;;22.50;13.40;;;7.40;99.90;;;;;;5026382;28;20474;-77
2023/04/06 08:32:16;;;;;;;24.77;14.40;;;7.60;99.90;;;;;;5028022;28;20461;-77
2023/04/06 08:34:42;;;;;;;21.10;13.73;;;7.80;99.90;;;;;;5029798;28;20508;-77
2023/04/06 08:37:09;;;;;;;21.33;13.23;;;8.00;99.90;;;;;;5024027;28;20453;-76
2023/04/06 08:39:36;;;;;;;24.83;14.00;;;8.30;99.90;;;;;;5028329;28;20461;-76
2023/04/06 08:42:03;;;;;;;23.53;14.50;;;8.60;99.90;;;;;;5027089;28;20458;-76
2023/04/06 08:44:30;;;;;;;20.10;13.20;;;8.70;99.90;;;;;;5028998;28;20543;-78
2023/04/06 08:46:57;;;;;;;18.67;13.10;;;8.60;99.90;;;;;;5024420;28;20490;-77
2023/04/06 08:49:26;;;;;;;22.73;13.67;;;8.70;99.90;;;;;;5027553;28;20459;-77
2023/04/06 08:51:52;;;;;;;25.33;15.10;;;8.90;99.90;;;;;;5025883;28;20515;-77
2023/04/06 08:54:19;;;;;;;25.80;13.63;;;9.20;99.90;;;;;;5023895;28;20987;-77
2023/04/06 08:56:46;;;;;;;18.27;13.63;;;9.20;99.90;;;;;;5030058;28;20500;-77
2023/04/06 08:59:14;;;;;;;21.10;14.67;;;9.20;99.90;;;;;;5024199;28;20457;-76
2023/04/06 09:01:42;;;;;;;23.03;14.17;;;9.50;99.90;;;;;;5026096;28;20477;-75
2023/04/06 09:04:10;;;;;;;25.20;15.87;;;9.50;99.90;;;;;;5029171;28;20446;-77
2023/04/06 09:06:40;;;;;;;23.63;16.23;;;9.40;99.90;;;;;;5024078;28;20494;-76
2023/04/06 09:09:07;;;;;;;19.83;14.60;;;9.50;99.90;;;;;;5021874;28;20556;-77
2023/04/06 09:11:44;;;;;;;23.03;14.23;;;9.40;99.90;;;;;;5029066;28;20471;-76
2023/04/06 09:14:11;;;;;;;28.90;16.03;;;9.50;99.90;;;;;;5035167;23;20490;-93
2023/04/06 09:16:40;;;;;;;22.80;14.43;;;9.60;99.90;;;;;;5033413;28;20449;-94
2023/04/06 09:19:07;;;;;;;24.87;15.90;;;9.60;99.90;;;;;;5016664;28;20820;-90
2023/04/06 09:21:34;;;;;;;22.13;15.27;;;10.10;99.90;;;;;;5013167;28;21004;-90
2023/04/06 09:24:03;;;;;;;20.93;14.80;;;10.20;99.90;;;;;;5016479;28;20462;-90
2023/04/06 09:26:33;;;;;;;20.30;13.77;;;10.30;99.90;;;;;;5008585;28;20480;-88
2023/04/06 09:29:01;;;;;;;28.83;15.37;;;10.30;99.90;;;;;;5016212;28;20447;-91
2023/04/06 09:31:29;;;;;;;21.63;14.00;;;10.30;99.90;;;;;;5008375;28;20493;-90
2023/04/06 09:33:57;;;;;;;22.20;14.10;;;10.30;99.90;;;;;;5008878;28;20500;-90
2023/04/06 09:36:31;;;;;;;25.53;14.47;;;10.40;99.90;;;;;;4997232;28;21067;-90
2023/04/06 09:38:59;;;;;;;32.07;14.10;;;10.50;99.90;;;;;;5000517;28;20505;-89
2023/04/06 09:41:28;;;;;;;23.30;14.13;;;10.60;99.90;;;;;;5004140;28;20497;-90
2023/04/06 09:44:03;;;;;;;23.67;14.13;;;10.70;99.90;;;;;;5001085;28;20462;-90
2023/04/06 09:46:32;;;;;;;20.00;13.30;;;11.00;99.90;;;;;;4999782;28;20479;-91
2023/04/06 09:48:59;;;;;;;20.83;12.77;;;11.20;99.90;;;;;;5005829;28;20503;-91
2023/04/06 09:51:30;;;;;;;23.30;13.67;;;11.20;99.90;;;;;;5006002;28;20455;-90
2023/04/06 09:54:01;;;;;;;23.07;14.87;;;11.10;99.90;;;;;;5006208;28;20463;-91
2023/04/06 09:56:32;;;;;;;24.10;14.57;;;10.90;99.90;;;;;;5004238;28;20453;-90
2023/04/06 09:59:06;;;;;;;28.60;14.40;;;10.70;99.90;;;;;;4999678;28;20463;-90
2023/04/06 10:01:36;;;;;;;22.67;14.53;;;10.90;99.90;;;;;;5007855;28;20542;-90
2023/04/06 10:04:14;;;;;;;19.17;11.87;;;11.20;99.90;;;;;;5011140;28;20884;-90
2023/04/06 10:06:41;;;;;;;22.73;13.27;;;11.10;99.90;;;;;;5005080;28;20481;-90
2023/04/06 10:09:09;;;;;;;18.47;13.10;;;11.10;99.90;;;;;;5007650;28;20460;-91
2023/04/06 10:11:37;;;;;;;23.50;12.97;;;11.10;99.90;;;;;;4999083;28;20460;-90
2023/04/06 10:14:04;;;;;;;33.53;12.27;;;11.20;99.90;;;;;;5014523;28;20885;-90
2023/04/06 10:16:31;;;;;;;26.03;14.17;;;11.40;99.90;;;;;;5008240;28;20535;-91
2023/04/06 10:19:06;;;;;;;19.23;12.20;;;11.30;99.90;;;;;;5004959;28;20507;-91
2023/04/06 10:21:34;;;;;;;20.37;12.90;;;11.40;99.90;;;;;;5005080;28;20540;-88
2023/04/06 10:24:02;;;;;;;19.80;12.53;;;11.50;99.90;;;;;;5001195;28;20457;-90
2023/04/06 10:26:29;;;;;;;23.73;12.93;;;11.80;99.90;;;;;;4999367;28;20487;-90
2023/04/06 10:29:04;;;;;;;18.97;12.27;;;12.10;99.90;;;;;;5005911;28;20534;-90
2023/04/06 10:31:31;;;;;;;25.13;13.30;;;12.10;99.90;;;;;;4998128;28;20460;-91
2023/04/06 10:34:01;;;;;;;21.60;13.20;;;12.00;99.90;;;;;;5006653;28;20461;-90
2023/04/06 10:36:29;;;;;;;20.70;12.00;;;12.10;99.90;;;;;;5006385;28;20469;-90
2023/04/06 10:38:58;;;;;;;21.60;12.00;;;11.90;99.90;;;;;;5005971;28;20470;-90
2023/04/06 10:41:25;;;;;;;20.90;11.93;;;11.90;99.90;;;;;;5004392;28;20548;-90
2023/04/06 10:43:57;;;;;;;22.33;13.87;;;11.90;99.90;;;;;;5012041;28;20477;-90
2023/04/06 10:46:26;;;;;;;22.63;14.10;;;11.90;99.90;;;;;;5002949;28;20538;-90
2023/04/06 10:48:53;;;;;;;23.43;13.27;;;12.00;99.90;;;;;;5010535;28;20489;-89
2023/04/06 10:51:26;;;;;;;22.47;12.90;;;12.10;99.90;;;;;;4994058;28;20464;-90
2023/04/06 10:53:54;;;;;;;24.20;12.70;;;12.30;99.90;;;;;;5000045;28;20475;-91
2023/04/06 10:56:25;;;;;;;21.70;12.70;;;12.40;99.90;;;;;;5008209;28;20536;-90
2023/04/06 10:58:55;;;;;;;21.73;11.13;;;12.40;99.90;;;;;;4997722;28;20538;-91
2023/04/06 11:01:26;;;;;;;24.57;13.07;;;12.50;99.90;;;;;;5014345;28;20453;-91
2023/04/06 11:03:54;;;;;;;23.97;12.53;;;12.50;99.90;;;;;;4995117;28;20522;-91
2023/04/06 11:06:22;;;;;;;18.30;11.60;;;12.60;99.90;;;;;;5008591;28;20486;-90
2023/04/06 11:08:48;;;;;;;25.93;13.47;;;12.80;99.90;;;;;;5005656;28;20471;-90
2023/04/06 11:11:18;;;;;;;20.40;12.23;;;12.80;99.90;;;;;;5014338;28;20461;-90
2023/04/06 11:13:46;;;;;;;22.50;12.70;;;12.80;99.90;;;;;;5009093;28;20473;-90
2023/04/06 11:16:15;;;;;;;27.33;13.17;;;13.00;99.90;;;;;;5009780;28;20513;-90
2023/04/06 11:18:54;;;;;;;23.23;12.03;;;13.00;99.90;;;;;;5010861;28;20499;-90
2023/04/06 11:21:32;;;;;;;19.60;13.23;;;13.10;99.90;;;;;;5008311;28;20538;-90
2023/04/06 11:24:08;;;;;;;17.90;11.37;;;13.10;99.90;;;;;;5008607;28;20484;-90
2023/04/06 11:26:38;;;;;;;24.10;12.90;;;13.10;99.90;;;;;;5013261;28;20486;-88
2023/04/06 11:29:05;;;;;;;19.50;12.17;;;13.30;99.90;;;;;;5004457;28;20981;-90
2023/04/06 11:31:32;;;;;;;23.30;12.30;;;13.30;99.90;;;;;;5013639;28;20451;-90
2023/04/06 11:34:00;;;;;;;20.43;11.37;;;13.40;99.90;;;;;;5015570;28;20464;-90
2023/04/06 11:36:29;;;;;;;19.77;11.30;;;13.70;99.90;;;;;;5006296;28;20980;-90
2023/04/06 11:38:57;;;;;;;17.80;11.07;;;13.80;99.90;;;;;;5012368;28;20549;-90
2023/04/06 11:41:25;;;;;;;17.30;10.00;;;13.80;99.90;;;;;;5016737;28;20800;-90
2023/04/06 11:43:55;;;;;;;18.17;10.43;;;13.80;99.90;;;;;;5001908;28;20491;-90
2023/04/06 11:46:22;;;;;;;17.70;9.80;;;13.80;99.90;;;;;;5015057;28;20996;-90
2023/04/06 11:48:49;;;;;;;16.50;10.20;;;14.10;99.90;;;;;;5008200;28;20529;-91
2023/04/06 11:51:24;;;;;;;15.30;9.17;;;14.20;99.90;;;;;;5010927;28;20460;-92
2023/04/06 11:53:51;;;;;;;14.40;10.20;;;14.30;99.90;;;;;;5009646;28;21016;-89
2023/04/06 11:56:27;;;;;;;19.93;11.20;;;14.30;99.90;;;;;;5007788;28;20539;-91
2023/04/06 11:58:56;;;;;;;15.30;10.20;;;14.20;99.90;;;;;;5008445;28;20460;-91
2023/04/06 12:01:22;;;;;;;12.93;8.90;;;14.10;99.90;;;;;;5010208;28;20617;-90
2023/04/06 12:03:49;;;;;;;13.67;9.70;;;14.50;99.40;;;;;;5002152;28;20503;-91
2023/04/06 12:06:16;;;;;;;14.20;8.97;;;14.50;98.10;;;;;;5013290;28;20452;-91
2023/04/06 12:08:45;;;;;;;14.97;8.90;;;14.70;97.60;;;;;;5009346;28;20475;-91
2023/04/06 12:11:11;;;;;;;17.10;9.60;;;14.80;96.30;;;;;;5016072;28;20527;-92
2023/04/06 12:13:38;;;;;;;11.77;7.93;;;14.90;94.80;;;;;;5027702;28;20470;-92
2023/04/06 12:16:05;;;;;;;17.00;9.97;;;15.20;95.40;;;;;;5029257;28;20447;-90
2023/04/06 12:18:32;;;;;;;19.60;9.27;;;15.20;94.00;;;;;;5009985;28;20534;-91
2023/04/06 12:20:59;;;;;;;19.03;9.87;;;15.20;96.10;;;;;;5006475;28;20447;-92
2023/04/06 12:23:25;;;;;;;14.63;8.97;;;15.10;96.70;;;;;;5011876;28;20561;-91
2023/04/06 12:25:54;;;;;;;17.70;10.33;;;14.80;96.40;;;;;;5009569;28;20459;-89
2023/04/06 12:28:22;;;;;;;26.43;11.70;;;14.60;96.80;;;;;;5016653;28;20490;-90
2023/04/06 12:30:49;;;;;;;18.90;11.67;;;14.40;97.60;;;;;;5008145;28;20498;-91
2023/04/06 12:33:16;;;;;;;19.33;11.23;;;14.30;98.50;;;;;;5013262;28;20928;-91
2023/04/06 12:35:43;;;;;;;16.20;10.00;;;14.20;98.60;;;;;;5016616;28;20458;-89
2023/04/06 12:38:10;;;;;;;18.67;10.87;;;13.90;97.40;;;;;;5013175;28;20479;-91
2023/04/06 12:40:38;;;;;;;17.40;10.00;;;13.70;99.30;;;;;;5003434;28;21216;-88